sensor_id;sensor_type;location;lat;lon;timestamp;pressure;altitude;pressure_sealevel;temperature;humidity
7297;BME280;40758;54.038;11.684;2024-03-29T00:01:51;99328.13;;;4.48;100.00
7297;BME280;40758;54.038;11.684;2024-03-29T00:04:17;99332.88;;;4.46;100.00
7297;BME280;40758;54.038;11.684;2024-03-29T00:06:42;99339.31;;;4.45;100.00
7297;BME280;40758;54.038;11.684;2024-03-29T00:09:08;99329.00;;;4.42;100.00
7297;BME280;40758;54.038;11.684;2024-03-29T00:11:33;99327.78;;;4.38;100.00
7297;BME280;40758;54.038;11.684;2024-03-29T00:13:59;99339.56;;;4.37;100.00
7297;BME280;40758;54.038;11.684;2024-03-29T00:16:25;99334.59;;;4.41;100.00
7297;BME280;40758;54.038;11.684;2024-03-29T00:18:51;99345.78;;;4.38;100.00
7297;BME280;40758;54.038;11.684;2024-03-29T00:21:17;99355.50;;;4.32;100.00
7297;BME280;40758;54.038;11.684;2024-03-29T00:23:44;99343.53;;;4.28;100.00
7297;BME280;40758;54.038;11.684;2024-03-29T00:26:11;99347.06;;;4.22;100.00
7297;BME280;40758;54.038;11.684;2024-03-29T00:28:37;99346.03;;;4.23;100.00
7297;BME280;40758;54.038;11.684;2024-03-29T00:31:03;99345.03;;;4.24;100.00
7297;BME280;40758;54.038;11.684;2024-03-29T00:33:29;99348.50;;;4.31;100.00
7297;BME280;40758;54.038;11.684;2024-03-29T00:35:56;99361.66;;;4.39;100.00
7297;BME280;40758;54.038;11.684;2024-03-29T00:38:22;99343.44;;;4.48;100.00
7297;BME280;40758;54.038;11.684;2024-03-29T00:40:47;99349.56;;;4.62;100.00
7297;BME280;40758;54.038;11.684;2024-03-29T00:43:13;99341.25;;;4.70;100.00
7297;BME280;40758;54.038;11.684;2024-03-29T00:45:39;99348.47;;;4.69;100.00
7297;BME280;40758;54.038;11.684;2024-03-29T00:48:05;99350.31;;;4.69;100.00
7297;BME280;40758;54.038;11.684;2024-03-29T00:50:32;99359.44;;;4.68;100.00
7297;BME280;40758;54.038;11.684;2024-03-29T00:52:57;99356.75;;;4.68;100.00
7297;BME280;40758;54.038;11.684;2024-03-29T00:55:23;99356.53;;;4.69;100.00
7297;BME280;40758;54.038;11.684;2024-03-29T00:57:49;99369.97;;;4.76;100.00
7297;BME280;40758;54.038;11.684;2024-03-29T01:00:14;99356.66;;;4.81;100.00
7297;BME280;40758;54.038;11.684;2024-03-29T01:02:40;99363.88;;;4.87;100.00
7297;BME280;40758;54.038;11.684;2024-03-29T01:05:06;99362.22;;;4.86;100.00
7297;BME280;40758;54.038;11.684;2024-03-29T01:07:33;99377.94;;;4.89;100.00
7297;BME280;40758;54.038;11.684;2024-03-29T01:09:58;99368.41;;;4.87;100.00
7297;BME280;40758;54.038;11.684;2024-03-29T01:12:24;99365.13;;;4.85;100.00
7297;BME280;40758;54.038;11.684;2024-03-29T01:14:51;99378.78;;;4.83;100.00
7297;BME280;40758;54.038;11.684;2024-03-29T01:17:16;99384.19;;;4.83;100.00
7297;BME280;40758;54.038;11.684;2024-03-29T01:19:42;99379.22;;;4.80;100.00
7297;BME280;40758;54.038;11.684;2024-03-29T01:22:07;99377.75;;;4.84;100.00
7297;BME280;40758;54.038;11.684;2024-03-29T01:24:33;99372.16;;;4.86;100.00
7297;BME280;40758;54.038;11.684;2024-03-29T01:27:00;99377.16;;;4.82;100.00
7297;BME280;40758;54.038;11.684;2024-03-29T01:29:25;99368.50;;;4.73;100.00
7297;BME280;40758;54.038;11.684;2024-03-29T01:31:51;99367.72;;;4.66;100.00
7297;BME280;40758;54.038;11.684;2024-03-29T01:34:17;99371.66;;;4.64;100.00
7297;BME280;40758;54.038;11.684;2024-03-29T01:36:43;99376.88;;;4.59;100.00
7297;BME280;40758;54.038;11.684;2024-03-29T01:39:09;99382.25;;;4.59;100.00
7297;BME280;40758;54.038;11.684;2024-03-29T01:41:39;99388.28;;;4.54;100.00
7297;BME280;40758;54.038;11.684;2024-03-29T01:44:05;99370.09;;;4.49;100.00
7297;BME280;40758;54.038;11.684;2024-03-29T01:46:33;99373.19;;;4.46;100.00
7297;BME280;40758;54.038;11.684;2024-03-29T01:49:00;99375.28;;;4.44;100.00
7297;BME280;40758;54.038;11.684;2024-03-29T01:51:25;99376.34;;;4.43;100.00
7297;BME280;40758;54.038;11.684;2024-03-29T01:53:54;99377.34;;;4.49;100.00
7297;BME280;40758;54.038;11.684;2024-03-29T01:56:21;99369.06;;;4.50;100.00
7297;BME280;40758;54.038;11.684;2024-03-29T01:58:49;99364.91;;;4.54;100.00
7297;BME280;40758;54.038;11.684;2024-03-29T02:01:16;99373.19;;;4.53;100.00
7297;BME280;40758;54.038;11.684;2024-03-29T02:03:42;99369.06;;;4.50;100.00
7297;BME280;40758;54.038;11.684;2024-03-29T02:06:08;99375.09;;;4.39;100.00
7297;BME280;40758;54.038;11.684;2024-03-29T02:08:36;99365.00;;;4.35;100.00
7297;BME280;40758;54.038;11.684;2024-03-29T02:11:02;99378.25;;;4.36;100.00
7297;BME280;40758;54.038;11.684;2024-03-29T02:13:29;99375.34;;;4.38;100.00
7297;BME280;40758;54.038;11.684;2024-03-29T02:15:55;99376.59;;;4.35;100.00
7297;BME280;40758;54.038;11.684;2024-03-29T02:18:21;99374.13;;;4.27;100.00
7297;BME280;40758;54.038;11.684;2024-03-29T02:20:47;99376.22;;;4.25;100.00
7297;BME280;40758;54.038;11.684;2024-03-29T02:23:30;99376.44;;;4.17;100.00
7297;BME280;40758;54.038;11.684;2024-03-29T02:25:58;99369.63;;;4.21;100.00
7297;BME280;40758;54.038;11.684;2024-03-29T02:28:24;99386.19;;;4.18;100.00
7297;BME280;40758;54.038;11.684;2024-03-29T02:30:50;99373.41;;;4.07;100.00
7297;BME280;40758;54.038;11.684;2024-03-29T02:33:16;99387.06;;;3.98;100.00
7297;BME280;40758;54.038;11.684;2024-03-29T02:35:42;99390.16;;;4.02;100.00
7297;BME280;40758;54.038;11.684;2024-03-29T02:38:08;99390.97;;;4.03;100.00
7297;BME280;40758;54.038;11.684;2024-03-29T02:40:33;99400.28;;;3.93;100.00
7297;BME280;40758;54.038;11.684;2024-03-29T02:42:59;99406.94;;;3.84;100.00
7297;BME280;40758;54.038;11.684;2024-03-29T02:45:29;99408.16;;;3.82;100.00
7297;BME280;40758;54.038;11.684;2024-03-29T02:47:54;99404.47;;;3.83;100.00
7297;BME280;40758;54.038;11.684;2024-03-29T02:50:20;99404.25;;;3.84;100.00
7297;BME280;40758;54.038;11.684;2024-03-29T02:52:46;99419.72;;;3.82;100.00
7297;BME280;40758;54.038;11.684;2024-03-29T02:55:11;99415.00;;;3.71;100.00
7297;BME280;40758;54.038;11.684;2024-03-29T02:57:37;99418.94;;;3.68;100.00
7297;BME280;40758;54.038;11.684;2024-03-29T03:00:07;99418.75;;;3.63;100.00
7297;BME280;40758;54.038;11.684;2024-03-29T03:02:40;99422.47;;;3.62;100.00
7297;BME280;40758;54.038;11.684;2024-03-29T03:05:08;99424.34;;;3.55;100.00
7297;BME280;40758;54.038;11.684;2024-03-29T03:07:34;99418.53;;;3.58;100.00
7297;BME280;40758;54.038;11.684;2024-03-29T03:10:19;99411.72;;;3.62;100.00
7297;BME280;40758;54.038;11.684;2024-03-29T03:13:03;99410.06;;;3.68;100.00
7297;BME280;40758;54.038;11.684;2024-03-29T03:15:29;99408.81;;;3.70;100.00
7297;BME280;40758;54.038;11.684;2024-03-29T03:17:55;99424.53;;;3.67;100.00
7297;BME280;40758;54.038;11.684;2024-03-29T03:20:21;99411.31;;;3.65;100.00
7297;BME280;40758;54.038;11.684;2024-03-29T03:22:50;99417.50;;;3.66;100.00
7297;BME280;40758;54.038;11.684;2024-03-29T03:25:16;99417.50;;;3.66;100.00
7297;BME280;40758;54.038;11.684;2024-03-29T03:27:42;99421.00;;;3.73;100.00
7297;BME280;40758;54.038;11.684;2024-03-29T03:30:08;99423.06;;;3.78;100.00
7297;BME280;40758;54.038;11.684;2024-03-29T03:32:33;99426.97;;;3.75;100.00
7297;BME280;40758;54.038;11.684;2024-03-29T03:34:59;99432.34;;;3.75;100.00
7297;BME280;40758;54.038;11.684;2024-03-29T03:37:25;99434.44;;;3.73;100.00
7297;BME280;40758;54.038;11.684;2024-03-29T03:39:50;99438.97;;;3.72;100.00
7297;BME280;40758;54.038;11.684;2024-03-29T03:42:16;99439.00;;;3.66;100.00
7297;BME280;40758;54.038;11.684;2024-03-29T03:44:42;99436.28;;;3.59;100.00
7297;BME280;40758;54.038;11.684;2024-03-29T03:47:07;99423.91;;;3.52;100.00
7297;BME280;40758;54.038;11.684;2024-03-29T03:49:33;99439.63;;;3.55;100.00
7297;BME280;40758;54.038;11.684;2024-03-29T03:51:59;99431.13;;;3.58;100.00
7297;BME280;40758;54.038;11.684;2024-03-29T03:54:24;99439.59;;;3.68;100.00
7297;BME280;40758;54.038;11.684;2024-03-29T03:56:50;99434.22;;;3.68;100.00
7297;BME280;40758;54.038;11.684;2024-03-29T03:59:16;99418.94;;;3.68;100.00
7297;BME280;40758;54.038;11.684;2024-03-29T04:01:41;99425.34;;;3.67;100.00
7297;BME280;40758;54.038;11.684;2024-03-29T04:04:07;99413.16;;;3.65;100.00
7297;BME280;40758;54.038;11.684;2024-03-29T04:06:33;99412.31;;;3.64;100.00
7297;BME280;40758;54.038;11.684;2024-03-29T04:08:58;99404.06;;;3.59;100.00
7297;BME280;40758;54.038;11.684;2024-03-29T04:11:24;99411.94;;;3.47;100.00
7297;BME280;40758;54.038;11.684;2024-03-29T04:13:50;99407.81;;;3.38;100.00
7297;BME280;40758;54.038;11.684;2024-03-29T04:16:15;99403.69;;;3.29;100.00
7297;BME280;40758;54.038;11.684;2024-03-29T04:18:41;99411.72;;;3.29;100.00
7297;BME280;40758;54.038;11.684;2024-03-29T04:21:06;99413.19;;;3.25;100.00
7297;BME280;40758;54.038;11.684;2024-03-29T04:23:32;99414.63;;;3.28;100.00
7297;BME280;40758;54.038;11.684;2024-03-29T04:25:59;99428.69;;;3.36;100.00
7297;BME280;40758;54.038;11.684;2024-03-29T04:28:26;99427.22;;;3.47;100.00
7297;BME280;40758;54.038;11.684;2024-03-29T04:30:53;99435.47;;;3.39;100.00
7297;BME280;40758;54.038;11.684;2024-03-29T04:33:19;99439.00;;;3.39;100.00
7297;BME280;40758;54.038;11.684;2024-03-29T04:36:01;99440.84;;;3.39;100.00
7297;BME280;40758;54.038;11.684;2024-03-29T04:38:28;99407.19;;;3.23;100.00
7297;BME280;40758;54.038;11.684;2024-03-29T04:40:55;99447.66;;;3.41;100.00
7297;BME280;40758;54.038;11.684;2024-03-29T04:43:22;99448.91;;;3.45;100.00
7297;BME280;40758;54.038;11.684;2024-03-29T04:45:49;99456.53;;;3.49;100.00
7297;BME280;40758;54.038;11.684;2024-03-29T04:48:15;99463.97;;;3.46;100.00
7297;BME280;40758;54.038;11.684;2024-03-29T04:50:41;99450.75;;;3.45;100.00
7297;BME280;40758;54.038;11.684;2024-03-29T04:53:10;99460.66;;;3.44;100.00
7297;BME280;40758;54.038;11.684;2024-03-29T04:55:35;99454.47;;;3.44;100.00
7297;BME280;40758;54.038;11.684;2024-03-29T04:58:01;99463.78;;;3.55;100.00
7297;BME280;40758;54.038;11.684;2024-03-29T05:00:27;99436.28;;;3.59;100.00
7297;BME280;40758;54.038;11.684;2024-03-29T05:02:53;99450.31;;;3.74;100.00
7297;BME280;40758;54.038;11.684;2024-03-29T05:05:18;99454.03;;;3.80;100.00
7297;BME280;40758;54.038;11.684;2024-03-29T05:07:44;99432.56;;;3.73;100.00
7297;BME280;40758;54.038;11.684;2024-03-29T05:10:09;99438.94;;;3.86;100.00
7297;BME280;40758;54.038;11.684;2024-03-29T05:12:36;99447.41;;;3.89;100.00
7297;BME280;40758;54.038;11.684;2024-03-29T05:15:02;99444.53;;;3.91;100.00
7297;BME280;40758;54.038;11.684;2024-03-29T05:17:28;99452.97;;;4.01;100.00
7297;BME280;40758;54.038;11.684;2024-03-29T05:19:54;99443.25;;;4.07;100.00
7297;BME280;40758;54.038;11.684;2024-03-29T05:22:20;99443.84;;;4.15;100.00
7297;BME280;40758;54.038;11.684;2024-03-29T05:24:45;99448.56;;;4.20;100.00
7297;BME280;40758;54.038;11.684;2024-03-29T05:27:12;99458.88;;;4.30;100.00
7297;BME280;40758;54.038;11.684;2024-03-29T05:29:38;99455.97;;;4.31;100.00
7297;BME280;40758;54.038;11.684;2024-03-29T05:32:04;99447.69;;;4.39;100.00
7297;BME280;40758;54.038;11.684;2024-03-29T05:34:30;99448.47;;;4.46;100.00
7297;BME280;40758;54.038;11.684;2024-03-29T05:36:56;99454.66;;;4.53;100.00
7297;BME280;40758;54.038;11.684;2024-03-29T05:39:22;99474.69;;;4.58;100.00
7297;BME280;40758;54.038;11.684;2024-03-29T05:41:49;99468.91;;;4.61;100.00
7297;BME280;40758;54.038;11.684;2024-03-29T05:44:14;99466.00;;;4.62;100.00
7297;BME280;40758;54.038;11.684;2024-03-29T05:46:40;99470.31;;;4.63;100.00
7297;BME280;40758;54.038;11.684;2024-03-29T05:49:07;99476.94;;;4.67;100.00
7297;BME280;40758;54.038;11.684;2024-03-29T05:51:33;99483.31;;;4.73;100.00
7297;BME280;40758;54.038;11.684;2024-03-29T05:54:01;99503.97;;;4.79;100.00
7297;BME280;40758;54.038;11.684;2024-03-29T05:56:29;99494.66;;;4.82;100.00
7297;BME280;40758;54.038;11.684;2024-03-29T05:58:55;99491.31;;;4.86;100.00
7297;BME280;40758;54.038;11.684;2024-03-29T06:01:21;99493.16;;;4.92;100.00
7297;BME280;40758;54.038;11.684;2024-03-29T06:03:49;99485.88;;;4.99;100.00
7297;BME280;40758;54.038;11.684;2024-03-29T06:06:18;99491.81;;;5.08;100.00
7297;BME280;40758;54.038;11.684;2024-03-29T06:08:47;99507.31;;;5.13;100.00
7297;BME280;40758;54.038;11.684;2024-03-29T06:11:13;99525.06;;;5.20;100.00
7297;BME280;40758;54.038;11.684;2024-03-29T06:13:39;99524.44;;;5.25;100.00
7297;BME280;40758;54.038;11.684;2024-03-29T06:16:21;99537.03;;;5.31;100.00
7297;BME280;40758;54.038;11.684;2024-03-29T06:19:05;99543.19;;;5.38;100.00
7297;BME280;40758;54.038;11.684;2024-03-29T06:21:31;99542.72;;;5.48;100.00
7297;BME280;40758;54.038;11.684;2024-03-29T06:24:11;99533.94;;;5.59;100.00
7297;BME280;40758;54.038;11.684;2024-03-29T06:26:40;99524.75;;;5.67;100.00
7297;BME280;40758;54.038;11.684;2024-03-29T06:29:07;99516.63;;;5.73;100.00
7297;BME280;40758;54.038;11.684;2024-03-29T06:31:36;99514.56;;;5.75;100.00
7297;BME280;40758;54.038;11.684;2024-03-29T06:34:01;99517.19;;;5.82;100.00
7297;BME280;40758;54.038;11.684;2024-03-29T06:36:27;99518.41;;;5.86;100.00
7297;BME280;40758;54.038;11.684;2024-03-29T06:38:54;99516.31;;;5.88;100.00
7297;BME280;40758;54.038;11.684;2024-03-29T06:41:20;99526.22;;;5.94;100.00
7297;BME280;40758;54.038;11.684;2024-03-29T06:43:45;99527.44;;;5.98;100.00
7297;BME280;40758;54.038;11.684;2024-03-29T06:46:12;99533.59;;;6.05;100.00
7297;BME280;40758;54.038;11.684;2024-03-29T06:48:38;99529.44;;;6.09;100.00
7297;BME280;40758;54.038;11.684;2024-03-29T06:51:04;99529.78;;;6.13;100.00
7297;BME280;40758;54.038;11.684;2024-03-29T06:53:30;99528.91;;;6.19;100.00
7297;BME280;40758;54.038;11.684;2024-03-29T06:55:56;99536.09;;;6.25;100.00
7297;BME280;40758;54.038;11.684;2024-03-29T06:58:25;99546.22;;;6.30;100.00
7297;BME280;40758;54.038;11.684;2024-03-29T07:00:50;99537.69;;;6.33;100.00
7297;BME280;40758;54.038;11.684;2024-03-29T07:03:18;99553.56;;;6.41;100.00
7297;BME280;40758;54.038;11.684;2024-03-29T07:05:47;99547.28;;;6.47;100.00
7297;BME280;40758;54.038;11.684;2024-03-29T07:08:13;99555.53;;;6.52;100.00
7297;BME280;40758;54.038;11.684;2024-03-29T07:10:39;99559.22;;;6.58;100.00
7297;BME280;40758;54.038;11.684;2024-03-29T07:13:06;99565.81;;;6.62;100.00
7297;BME280;40758;54.038;11.684;2024-03-29T07:15:32;99564.44;;;6.71;100.00
7297;BME280;40758;54.038;11.684;2024-03-29T07:17:58;99568.59;;;6.74;100.00
7297;BME280;40758;54.038;11.684;2024-03-29T07:20:25;99569.41;;;6.74;100.00
7297;BME280;40758;54.038;11.684;2024-03-29T07:22:51;99559.59;;;6.80;100.00
7297;BME280;40758;54.038;11.684;2024-03-29T07:25:16;99561.00;;;6.82;100.00
7297;BME280;40758;54.038;11.684;2024-03-29T07:27:42;99563.47;;;6.84;100.00
7297;BME280;40758;54.038;11.684;2024-03-29T07:30:09;99566.78;;;6.86;100.00
7297;BME280;40758;54.038;11.684;2024-03-29T07:32:37;99567.53;;;6.93;100.00
7297;BME280;40758;54.038;11.684;2024-03-29T07:35:04;99553.59;;;6.96;100.00
7297;BME280;40758;54.038;11.684;2024-03-29T07:37:30;99563.25;;;7.04;100.00
7297;BME280;40758;54.038;11.684;2024-03-29T07:39:56;99561.38;;;7.04;100.00
7297;BME280;40758;54.038;11.684;2024-03-29T07:42:22;99562.09;;;7.11;100.00
7297;BME280;40758;54.038;11.684;2024-03-29T07:44:48;99576.94;;;7.20;100.00
7297;BME280;40758;54.038;11.684;2024-03-29T07:47:14;99562.28;;;7.28;100.00
7297;BME280;40758;54.038;11.684;2024-03-29T07:49:40;99567.59;;;7.35;100.00
7297;BME280;40758;54.038;11.684;2024-03-29T07:52:06;99570.22;;;7.41;100.00
7297;BME280;40758;54.038;11.684;2024-03-29T07:54:36;99574.69;;;7.47;100.00
7297;BME280;40758;54.038;11.684;2024-03-29T07:57:03;99575.66;;;7.53;100.00
7297;BME280;40758;54.038;11.684;2024-03-29T07:59:28;99575.22;;;7.56;100.00
7297;BME280;40758;54.038;11.684;2024-03-29T08:01:55;99563.81;;;7.54;100.00
7297;BME280;40758;54.038;11.684;2024-03-29T08:04:21;99575.22;;;7.56;100.00
7297;BME280;40758;54.038;11.684;2024-03-29T08:06:47;99589.28;;;7.58;100.00
7297;BME280;40758;54.038;11.684;2024-03-29T08:09:12;99582.25;;;7.57;100.00
7297;BME280;40758;54.038;11.684;2024-03-29T08:11:40;99588.03;;;7.61;100.00
7297;BME280;40758;54.038;11.684;2024-03-29T08:14:06;99602.34;;;7.61;100.00
7297;BME280;40758;54.038;11.684;2024-03-29T08:16:33;99596.34;;;7.59;100.00
7297;BME280;40758;54.038;11.684;2024-03-29T08:18:58;99605.50;;;7.58;100.00
7297;BME280;40758;54.038;11.684;2024-03-29T08:21:24;99617.00;;;7.54;100.00
7297;BME280;40758;54.038;11.684;2024-03-29T08:23:53;99604.09;;;7.56;100.00
7297;BME280;40758;54.038;11.684;2024-03-29T08:26:23;99620.06;;;7.57;100.00
7297;BME280;40758;54.038;11.684;2024-03-29T08:28:50;99615.25;;;7.59;100.00
7297;BME280;40758;54.038;11.684;2024-03-29T08:31:15;99606.56;;;7.57;100.00
7297;BME280;40758;54.038;11.684;2024-03-29T08:33:42;99606.13;;;7.60;100.00
7297;BME280;40758;54.038;11.684;2024-03-29T08:36:08;99610.47;;;7.61;100.00
7297;BME280;40758;54.038;11.684;2024-03-29T08:38:37;99616.81;;;7.67;100.00
7297;BME280;40758;54.038;11.684;2024-03-29T08:41:02;99617.19;;;7.70;100.00
7297;BME280;40758;54.038;11.684;2024-03-29T08:43:28;99615.09;;;7.72;100.00
7297;BME280;40758;54.038;11.684;2024-03-29T08:45:54;99624.25;;;7.71;100.00
7297;BME280;40758;54.038;11.684;2024-03-29T08:48:20;99622.56;;;7.70;100.00
7297;BME280;40758;54.038;11.684;2024-03-29T08:50:45;99627.53;;;7.73;100.00
7297;BME280;40758;54.038;11.684;2024-03-29T08:53:12;99623.66;;;7.81;100.00
7297;BME280;40758;54.038;11.684;2024-03-29T08:55:37;99620.88;;;7.88;100.00
7297;BME280;40758;54.038;11.684;2024-03-29T08:58:05;99621.13;;;7.98;100.00
7297;BME280;40758;54.038;11.684;2024-03-29T09:00:31;99632.91;;;8.04;100.00
7297;BME280;40758;54.038;11.684;2024-03-29T09:02:57;99634.44;;;8.11;100.00
7297;BME280;40758;54.038;11.684;2024-03-29T09:05:23;99631.69;;;8.30;100.00
7297;BME280;40758;54.038;11.684;2024-03-29T09:07:49;99627.25;;;8.47;100.00
7297;BME280;40758;54.038;11.684;2024-03-29T09:10:16;99618.91;;;8.60;100.00
7297;BME280;40758;54.038;11.684;2024-03-29T09:12:41;99609.34;;;8.69;100.00
7297;BME280;40758;54.038;11.684;2024-03-29T09:15:07;99619.22;;;8.75;100.00
7297;BME280;40758;54.038;11.684;2024-03-29T09:17:40;99626.63;;;8.80;100.00
7297;BME280;40758;54.038;11.684;2024-03-29T09:20:06;99632.66;;;8.94;100.00
7297;BME280;40758;54.038;11.684;2024-03-29T09:22:33;99614.94;;;9.03;100.00
7297;BME280;40758;54.038;11.684;2024-03-29T09:24:59;99630.34;;;9.14;100.00
7297;BME280;40758;54.038;11.684;2024-03-29T09:27:26;99639.03;;;9.40;100.00
7297;BME280;40758;54.038;11.684;2024-03-29T09:29:51;99627.91;;;9.53;100.00
7297;BME280;40758;54.038;11.684;2024-03-29T09:32:17;99619.72;;;9.65;100.00
7297;BME280;40758;54.038;11.684;2024-03-29T09:34:44;99610.47;;;9.77;100.00
7297;BME280;40758;54.038;11.684;2024-03-29T09:37:10;99612.03;;;9.90;100.00
7297;BME280;40758;54.038;11.684;2024-03-29T09:39:36;99610.31;;;10.01;100.00
7297;BME280;40758;54.038;11.684;2024-03-29T09:42:06;99636.81;;;10.10;100.00
7297;BME280;40758;54.038;11.684;2024-03-29T09:44:33;99627.84;;;10.10;100.00
7297;BME280;40758;54.038;11.684;2024-03-29T09:47:03;99630.72;;;10.03;100.00
7297;BME280;40758;54.038;11.684;2024-03-29T09:49:34;99629.72;;;9.93;100.00
7297;BME280;40758;54.038;11.684;2024-03-29T09:52:00;99627.38;;;9.84;100.00
7297;BME280;40758;54.038;11.684;2024-03-29T09:54:30;99635.72;;;9.66;100.00
7297;BME280;40758;54.038;11.684;2024-03-29T09:56:57;99623.03;;;9.55;100.00
7297;BME280;40758;54.038;11.684;2024-03-29T09:59:24;99607.19;;;9.47;100.00
7297;BME280;40758;54.038;11.684;2024-03-29T10:01:51;99614.03;;;9.38;100.00
7297;BME280;40758;54.038;11.684;2024-03-29T10:04:17;99624.09;;;9.25;100.00
7297;BME280;40758;54.038;11.684;2024-03-29T10:06:46;99615.41;;;9.12;100.00
7297;BME280;40758;54.038;11.684;2024-03-29T10:09:18;99615.78;;;9.03;100.00
7297;BME280;40758;54.038;11.684;2024-03-29T10:11:45;99616.84;;;8.91;100.00
7297;BME280;40758;54.038;11.684;2024-03-29T10:14:10;99619.22;;;8.75;100.00
7297;BME280;40758;54.038;11.684;2024-03-29T10:16:36;99607.00;;;8.61;100.00
7297;BME280;40758;54.038;11.684;2024-03-29T10:19:04;99601.84;;;8.48;100.00
7297;BME280;40758;54.038;11.684;2024-03-29T10:21:29;99579.38;;;8.36;100.00
7297;BME280;40758;54.038;11.684;2024-03-29T10:23:55;99590.75;;;8.26;100.00
7297;BME280;40758;54.038;11.684;2024-03-29T10:26:21;99580.84;;;8.20;100.00
7297;BME280;40758;54.038;11.684;2024-03-29T10:28:48;99574.03;;;8.17;100.00
7297;BME280;40758;54.038;11.684;2024-03-29T10:31:14;99583.91;;;8.12;100.00
7297;BME280;40758;54.038;11.684;2024-03-29T10:33:44;99574.97;;;8.11;100.00
7297;BME280;40758;54.038;11.684;2024-03-29T10:36:10;99563.31;;;8.11;100.00
7297;BME280;40758;54.038;11.684;2024-03-29T10:38:38;99552.88;;;8.14;100.00
7297;BME280;40758;54.038;11.684;2024-03-29T10:41:04;99541.56;;;8.17;100.00
7297;BME280;40758;54.038;11.684;2024-03-29T10:43:33;99523.38;;;8.24;100.00
7297;BME280;40758;54.038;11.684;2024-03-29T10:46:00;99517.75;;;8.38;100.00
7297;BME280;40758;54.038;11.684;2024-03-29T10:48:27;99523.28;;;8.43;100.00
7297;BME280;40758;54.038;11.684;2024-03-29T10:50:58;99534.91;;;8.43;100.00
7297;BME280;40758;54.038;11.684;2024-03-29T10:53:26;99529.75;;;8.42;100.00
7297;BME280;40758;54.038;11.684;2024-03-29T10:55:58;99534.53;;;8.40;100.00
7297;BME280;40758;54.038;11.684;2024-03-29T10:58:34;99533.41;;;8.36;100.00
7297;BME280;40758;54.038;11.684;2024-03-29T11:01:03;99530.19;;;8.27;100.00
7297;BME280;40758;54.038;11.684;2024-03-29T11:03:38;99524.44;;;8.23;100.00
7297;BME280;40758;54.038;11.684;2024-03-29T11:06:06;99517.59;;;8.21;100.00
7297;BME280;40758;54.038;11.684;2024-03-29T11:08:34;99526.53;;;8.21;100.00
7297;BME280;40758;54.038;11.684;2024-03-29T11:11:04;99508.66;;;8.20;100.00
7297;BME280;40758;54.038;11.684;2024-03-29T11:16:39;99511.28;;;8.39;100.00
7297;BME280;40758;54.038;11.684;2024-03-29T11:19:07;99509.50;;;8.44;100.00
7297;BME280;40758;54.038;11.684;2024-03-29T11:21:33;99510.06;;;8.46;100.00
7297;BME280;40758;54.038;11.684;2024-03-29T11:24:03;99497.41;;;8.47;100.00
7297;BME280;40758;54.038;11.684;2024-03-29T11:26:29;99511.00;;;8.52;100.00
7297;BME280;40758;54.038;11.684;2024-03-29T11:28:55;99513.72;;;8.52;100.00
7297;BME280;40758;54.038;11.684;2024-03-29T11:31:23;99507.28;;;8.53;100.00
7297;BME280;40758;54.038;11.684;2024-03-29T11:33:49;99506.19;;;8.54;100.00
7297;BME280;40758;54.038;11.684;2024-03-29T11:36:18;99498.19;;;8.59;100.00
7297;BME280;40758;54.038;11.684;2024-03-29T11:38:48;99504.75;;;8.63;100.00
7297;BME280;40758;54.038;11.684;2024-03-29T11:41:22;99501.59;;;8.66;100.00
7297;BME280;40758;54.038;11.684;2024-03-29T11:43:51;99491.13;;;8.70;100.00
7297;BME280;40758;54.038;11.684;2024-03-29T11:46:18;99508.75;;;8.72;100.00
7297;BME280;40758;54.038;11.684;2024-03-29T11:48:45;99502.03;;;8.75;100.00
7297;BME280;40758;54.038;11.684;2024-03-29T11:51:18;99509.69;;;8.78;100.00
7297;BME280;40758;54.038;11.684;2024-03-29T11:53:46;99502.47;;;8.84;100.00
7297;BME280;40758;54.038;11.684;2024-03-29T11:56:12;99508.56;;;8.91;100.00
7297;BME280;40758;54.038;11.684;2024-03-29T11:58:38;99516.56;;;8.97;100.00
7297;BME280;40758;54.038;11.684;2024-03-29T12:01:05;99508.38;;;9.09;100.00
7297;BME280;40758;54.038;11.684;2024-03-29T12:03:32;99503.28;;;9.24;100.00
7297;BME280;40758;54.038;11.684;2024-03-29T12:05:59;99510.47;;;9.47;100.00
7297;BME280;40758;54.038;11.684;2024-03-29T12:08:34;99504.97;;;9.59;100.00
7297;BME280;40758;54.038;11.684;2024-03-29T12:11:01;99488.28;;;9.67;100.00
7297;BME280;40758;54.038;11.684;2024-03-29T12:13:27;99499.31;;;9.94;100.00
7297;BME280;40758;54.038;11.684;2024-03-29T12:15:53;99504.13;;;10.43;100.00
7297;BME280;40758;54.038;11.684;2024-03-29T12:18:20;99501.78;;;10.95;100.00
7297;BME280;40758;54.038;11.684;2024-03-29T12:20:47;99506.34;;;11.11;100.00
7297;BME280;40758;54.038;11.684;2024-03-29T12:23:19;99505.47;;;11.06;100.00
7297;BME280;40758;54.038;11.684;2024-03-29T12:25:45;99505.72;;;11.04;100.00
7297;BME280;40758;54.038;11.684;2024-03-29T12:28:13;99500.78;;;11.01;100.00
7297;BME280;40758;54.038;11.684;2024-03-29T12:30:47;99492.53;;;10.91;100.00
7297;BME280;40758;54.038;11.684;2024-03-29T12:33:15;99488.00;;;10.97;100.00
7297;BME280;40758;54.038;11.684;2024-03-29T12:35:41;99472.84;;;11.06;100.00
7297;BME280;40758;54.038;11.684;2024-03-29T12:38:11;99486.19;;;11.07;100.00
7297;BME280;40758;54.038;11.684;2024-03-29T12:40:37;99472.84;;;11.06;100.00
7297;BME280;40758;54.038;11.684;2024-03-29T12:43:05;99465.25;;;11.03;100.00
7297;BME280;40758;54.038;11.684;2024-03-29T12:45:33;99477.88;;;10.92;100.00
7297;BME280;40758;54.038;11.684;2024-03-29T12:47:58;99480.78;;;10.85;100.00
7297;BME280;40758;54.038;11.684;2024-03-29T12:53:00;99484.47;;;10.74;100.00
7297;BME280;40758;54.038;11.684;2024-03-29T12:55:27;99493.22;;;10.81;100.00
7297;BME280;40758;54.038;11.684;2024-03-29T12:57:56;99482.22;;;10.93;100.00
7297;BME280;40758;54.038;11.684;2024-03-29T13:00:23;99482.56;;;10.97;100.00
7297;BME280;40758;54.038;11.684;2024-03-29T13:02:49;99497.78;;;10.98;100.00
7297;BME280;40758;54.038;11.684;2024-03-29T13:05:15;99501.56;;;10.97;100.00